createdAt,value
2019-03-22T00:04:54.956Z,58.41
2019-03-22T00:10:03.903Z,51.41
2019-03-22T00:15:12.871Z,53.67
2019-03-22T00:20:21.798Z,66.58
2019-03-22T00:25:30.718Z,42.64
2019-03-22T00:30:39.786Z,50.60
2019-03-22T00:35:48.744Z,53.66
2019-03-22T00:40:57.678Z,47.74
2019-03-22T00:46:06.616Z,38.12
2019-03-22T00:51:15.564Z,47.37
2019-03-22T00:56:24.482Z,52.13
2019-03-22T01:01:33.504Z,53.75
2019-03-22T01:06:42.454Z,47.96
2019-03-22T01:11:51.388Z,47.53
2019-03-22T01:17:00.314Z,37.59
2019-03-22T01:22:09.282Z,21.33
2019-03-22T01:27:18.262Z,13.53
2019-03-22T01:32:27.283Z,11.45
2019-03-22T01:37:36.270Z,9.57
2019-03-22T01:42:45.228Z,7.62
2019-03-22T01:47:54.234Z,7.88
2019-03-22T01:53:03.323Z,5.95
2019-03-22T01:58:12.318Z,5.30
2019-03-22T02:03:21.274Z,4.42
2019-03-22T02:08:30.266Z,4.04
2019-03-22T02:13:39.226Z,5.25
2019-03-22T02:18:48.209Z,8.36
2019-03-22T02:23:57.276Z,7.87
2019-03-22T02:29:06.259Z,8.12
2019-03-22T02:34:15.373Z,9.24
2019-03-22T02:39:24.440Z,8.39
2019-03-22T02:44:33.361Z,8.13
2019-03-22T02:49:42.275Z,8.86
2019-03-22T02:54:51.373Z,10.68
2019-03-22T03:00:00.505Z,9.90
2019-03-22T03:05:09.266Z,13.88
2019-03-22T03:10:18.171Z,11.99
2019-03-22T03:15:27.142Z,14.36
2019-03-22T03:20:36.066Z,16.24
2019-03-22T03:25:45.048Z,21.13
2019-03-22T03:30:54.006Z,23.34
2019-03-22T03:36:03.047Z,30.35
2019-03-22T03:41:11.968Z,48.01
2019-03-22T03:46:20.998Z,30.88
2019-03-22T03:51:29.940Z,25.12
2019-03-22T03:56:38.909Z,21.57
2019-03-22T04:01:47.866Z,15.44
2019-03-22T04:06:56.839Z,15.47
2019-03-22T04:12:05.827Z,11.42
2019-03-22T04:17:14.747Z,11.73
2019-03-22T04:22:23.730Z,14.89
2019-03-22T04:27:32.707Z,16.83
2019-03-22T04:32:41.683Z,18.19
2019-03-22T04:37:50.684Z,30.31
2019-03-22T04:42:59.685Z,22.88
2019-03-22T04:48:08.747Z,15.60
2019-03-22T04:53:17.733Z,17.03
2019-03-22T04:58:26.714Z,27.06
2019-03-22T05:03:35.710Z,67.93
2019-03-22T05:08:44.702Z,67.44
2019-03-22T05:13:53.697Z,39.46
2019-03-22T05:19:02.654Z,14.66
2019-03-22T05:24:11.665Z,16.06
2019-03-22T05:29:30.160Z,18.93
2019-03-22T05:34:29.126Z,26.21
2019-03-22T05:39:38.199Z,33.60
2019-03-22T05:44:47.194Z,45.87
2019-03-22T05:49:56.381Z,26.60
2019-03-22T05:55:05.362Z,26.12
2019-03-22T06:00:14.385Z,16.23
2019-03-22T06:05:23.358Z,11.92
2019-03-22T06:10:32.366Z,13.02
2019-03-22T06:15:41.358Z,11.18
2019-03-22T06:20:50.353Z,14.41
2019-03-22T06:25:59.344Z,13.07
2019-03-22T06:31:08.362Z,18.00
2019-03-22T06:36:17.351Z,14.98
2019-03-22T06:41:26.343Z,18.70
2019-03-22T06:46:35.315Z,14.08
2019-03-22T06:51:44.333Z,13.88
2019-03-22T06:56:53.318Z,11.85
2019-03-22T07:02:02.324Z,11.93
2019-03-22T07:07:11.244Z,119.94
2019-03-22T07:12:20.248Z,795.84
2019-03-22T07:17:29.234Z,797.35
2019-03-22T07:22:38.303Z,797.35
2019-03-22T07:27:47.235Z,798.84
2019-03-22T07:32:56.482Z,801.81
2019-03-22T07:38:05.481Z,798.84
2019-03-22T07:43:14.676Z,999.90
2019-03-22T07:48:23.498Z,800.33
2019-03-22T07:53:32.530Z,803.29
2019-03-22T07:58:41.530Z,23.34
2019-03-22T08:03:50.573Z,95.21
2019-03-22T08:08:59.558Z,87.01
2019-03-22T08:14:08.666Z,101.16
2019-03-22T08:19:17.646Z,85.05
2019-03-22T08:24:26.646Z,100.32
2019-03-22T08:29:35.630Z,95.04
2019-03-22T08:34:47.565Z,81.53
2019-03-22T08:39:55.808Z,43.77
2019-03-22T08:45:01.695Z,25.02
2019-03-22T08:50:10.678Z,19.86
2019-03-22T08:55:19.712Z,18.22
2019-03-22T09:00:38.535Z,33.03
2019-03-22T09:05:37.191Z,52.06
2019-03-22T09:10:46.167Z,31.90
2019-03-22T09:15:55.195Z,553.78
2019-03-22T09:21:04.198Z,806.22
2019-03-22T09:26:13.122Z,999.90
2019-03-22T09:31:22.131Z,999.90
2019-03-22T09:36:31.182Z,810.56
2019-03-22T09:41:40.213Z,814.85
2019-03-22T09:46:49.183Z,25.63
2019-03-22T09:51:58.166Z,29.86
2019-03-22T09:57:07.171Z,140.57
2019-03-22T10:02:16.160Z,26.45
2019-03-22T10:07:25.204Z,63.99
2019-03-22T10:12:34.298Z,73.92
2019-03-22T10:17:43.162Z,116.33
2019-03-22T10:22:52.656Z,112.90
2019-03-22T10:28:01.686Z,64.09
2019-03-22T10:33:22.171Z,39.21
2019-03-22T10:38:30.927Z,63.39
2019-03-22T10:43:27.763Z,77.68
2019-03-22T10:48:36.988Z,53.92
2019-03-22T10:53:45.979Z,703.31
2019-03-22T10:58:54.979Z,832.69
2019-03-22T11:09:12.558Z,850.60
2019-03-22T11:14:21.480Z,875.98
2019-03-22T11:19:30.539Z,999.90
2019-03-22T11:24:39.513Z,999.90
2019-03-22T11:29:48.507Z,898.08
2019-03-22T11:34:57.458Z,999.90
2019-03-22T11:40:06.522Z,922.48
2019-03-22T11:45:15.454Z,930.42
2019-03-22T11:50:24.452Z,999.90
2019-03-22T11:55:33.400Z,945.50
2019-03-22T12:00:42.459Z,957.32
2019-03-22T12:05:51.450Z,970.14
2019-03-22T12:11:00.546Z,977.45
2019-03-22T12:16:09.482Z,979.52
2019-03-22T12:21:18.474Z,981.65
2019-03-22T12:26:27.419Z,999.90
2019-03-22T12:31:36.354Z,999.90
2019-03-22T12:36:45.305Z,988.36
2019-03-22T12:41:54.534Z,988.95
2019-03-22T12:47:03.478Z,864.99
2019-03-22T12:52:12.502Z,815.24
2019-03-22T12:57:21.430Z,765.87
2019-03-22T13:02:30.407Z,996.87
2019-03-22T13:07:39.349Z,996.63
2019-03-22T13:12:48.364Z,997.10
2019-03-22T13:17:57.310Z,996.73
2019-03-22T13:23:06.272Z,997.01
2019-03-22T13:28:15.228Z,996.73
2019-03-22T13:33:24.233Z,996.83
2019-03-22T13:38:33.196Z,997.55
2019-03-22T13:43:42.126Z,998.11
2019-03-22T13:48:51.050Z,998.20
2019-03-22T13:54:00.055Z,997.80
2019-03-22T13:59:09.054Z,997.80
2019-03-22T14:04:18.110Z,998.41
2019-03-22T14:09:27.072Z,998.23
2019-03-22T14:14:36.075Z,997.96
2019-03-22T14:19:45.062Z,999.90
2019-03-22T14:24:54.082Z,998.28
2019-03-22T14:30:03.026Z,999.90
2019-03-22T14:35:12.102Z,998.77
2019-03-22T14:40:21.089Z,998.90
2019-03-22T14:45:30.108Z,998.62
2019-03-22T14:50:39.094Z,998.71
2019-03-22T14:55:48.082Z,999.90
2019-03-22T15:00:57.090Z,998.39
2019-03-22T15:06:06.130Z,999.90
2019-03-22T15:11:15.134Z,998.51
2019-03-22T15:16:24.129Z,998.53
2019-03-22T15:21:33.125Z,999.90
2019-03-22T15:26:42.200Z,998.44
2019-03-22T15:31:51.178Z,998.26
2019-03-22T15:37:01.042Z,998.20
2019-03-22T15:42:10.010Z,998.41
2019-03-22T15:47:19.104Z,998.08
2019-03-22T15:52:28.070Z,998.05
2019-03-22T15:57:37.062Z,997.69
2019-03-22T16:02:46.047Z,997.55
2019-03-22T16:07:55.126Z,997.66
2019-03-22T16:13:04.111Z,999.90
2019-03-22T16:18:13.233Z,996.92
2019-03-22T16:23:22.219Z,996.58
2019-03-22T16:28:31.238Z,996.63
2019-03-22T16:33:40.234Z,996.73
2019-03-22T16:38:49.270Z,997.39
2019-03-22T16:43:58.251Z,997.35
2019-03-22T16:49:07.621Z,996.53
2019-03-22T16:54:16.602Z,996.78
2019-03-22T16:59:25.567Z,996.73
2019-03-22T17:04:34.536Z,996.53
2019-03-22T17:09:43.482Z,999.90
2019-03-22T17:14:52.508Z,996.97
2019-03-22T17:20:01.605Z,996.87
2019-03-22T17:25:10.613Z,996.68
2019-03-22T17:30:19.621Z,996.68
2019-03-22T17:35:28.604Z,996.43
2019-03-22T17:40:37.624Z,999.90
2019-03-22T17:45:46.602Z,996.10
2019-03-22T17:50:55.585Z,999.90
2019-03-22T17:56:04.558Z,993.83
2019-03-22T18:01:13.578Z,992.61
2019-03-22T18:06:22.526Z,990.82
2019-03-22T18:11:31.487Z,988.95
2019-03-22T18:16:40.431Z,992.91
2019-03-22T18:21:49.466Z,991.06
2019-03-22T18:26:58.413Z,988.80
2019-03-22T18:32:07.382Z,986.41
2019-03-22T18:37:16.327Z,984.57
2019-03-22T18:42:25.358Z,983.17
2019-03-22T18:47:34.302Z,981.65
2019-03-22T18:52:43.250Z,980.25
2019-03-22T18:57:52.198Z,979.02
2019-03-22T19:03:01.242Z,978.25
2019-03-22T19:08:10.210Z,978.76
2019-03-22T19:13:19.234Z,977.45
2019-03-22T19:18:28.194Z,975.78
2019-03-22T19:23:37.202Z,973.40
2019-03-22T19:28:46.171Z,970.14
2019-03-22T19:33:55.114Z,666.78
2019-03-22T19:39:04.100Z,458.00
2019-03-22T19:44:13.051Z,959.58
2019-03-22T19:49:21.974Z,999.90
2019-03-22T19:54:30.937Z,952.98
2019-03-22T19:59:39.890Z,950.41
2019-03-22T20:04:48.913Z,999.90
2019-03-22T20:09:57.847Z,943.19
2019-03-22T20:15:06.827Z,938.96
2019-03-22T20:20:15.782Z,932.47
2019-03-22T20:25:24.741Z,999.90
2019-03-22T20:30:33.665Z,921.72
2019-03-22T20:35:42.622Z,999.90
2019-03-22T20:40:51.542Z,908.80
2019-03-22T20:46:00.638Z,859.65
2019-03-22T20:51:09.633Z,553.33
2019-03-22T20:56:18.647Z,184.47
2019-03-22T21:01:27.613Z,113.83
2019-03-22T21:06:36.697Z,99.80
2019-03-22T21:11:45.729Z,147.25
2019-03-22T21:16:54.762Z,83.77
2019-03-22T21:22:03.719Z,50.63
2019-03-22T21:27:15.756Z,75.66
2019-03-22T21:32:21.339Z,43.27
2019-03-22T21:37:30.410Z,37.98
2019-03-22T21:42:39.353Z,34.71
2019-03-22T21:47:48.346Z,40.31
2019-03-22T21:52:57.343Z,26.26
2019-03-22T21:58:06.474Z,24.26
2019-03-22T22:03:15.464Z,23.00
2019-03-22T22:08:24.483Z,26.08
2019-03-22T22:13:33.463Z,38.72
2019-03-22T22:18:42.503Z,41.02
2019-03-22T22:23:51.538Z,34.00
2019-03-22T22:29:00.565Z,32.69
2019-03-22T22:34:09.578Z,31.91
2019-03-22T22:39:18.695Z,35.01
2019-03-22T22:44:27.694Z,38.15
2019-03-22T22:49:36.710Z,27.86
2019-03-22T22:54:45.710Z,23.22
2019-03-22T22:59:54.747Z,15.89
2019-03-22T23:05:03.785Z,14.14
2019-03-22T23:10:13.507Z,13.32
2019-03-22T23:15:25.282Z,16.96
2019-03-22T23:20:24.279Z,18.22
2019-03-22T23:25:33.262Z,12.92
2019-03-22T23:30:42.271Z,15.14
2019-03-22T23:35:51.262Z,14.61
2019-03-22T23:41:00.226Z,13.38
2019-03-22T23:46:09.293Z,15.48
2019-03-22T23:51:18.294Z,16.92
2019-03-22T23:56:27.297Z,15.63
